sensor_id;sensor_type;location;lat;lon;timestamp;P1;durP1;ratioP1;P2;durP2;ratioP2
32523;SDS011;18965;52.242;20.886;2023-04-06T00:00:52;88.75;;;53.22;;
32523;SDS011;18965;52.242;20.886;2023-04-06T00:03:18;133.50;;;65.93;;
32523;SDS011;18965;52.242;20.886;2023-04-06T00:05:44;84.22;;;49.78;;
32523;SDS011;18965;52.242;20.886;2023-04-06T00:08:10;75.85;;;51.20;;
32523;SDS011;18965;52.242;20.886;2023-04-06T00:10:36;79.82;;;49.25;;
32523;SDS011;18965;52.242;20.886;2023-04-06T00:13:01;65.30;;;46.75;;
32523;SDS011;18965;52.242;20.886;2023-04-06T00:15:27;66.28;;;42.05;;
32523;SDS011;18965;52.242;20.886;2023-04-06T00:17:53;64.22;;;45.40;;
32523;SDS011;18965;52.242;20.886;2023-04-06T00:20:19;98.43;;;52.42;;
32523;SDS011;18965;52.242;20.886;2023-04-06T00:22:45;55.50;;;42.53;;
32523;SDS011;18965;52.242;20.886;2023-04-06T00:25:11;116.78;;;58.13;;
32523;SDS011;18965;52.242;20.886;2023-04-06T00:27:37;56.92;;;40.20;;
32523;SDS011;18965;52.242;20.886;2023-04-06T00:30:03;54.85;;;41.78;;
32523;SDS011;18965;52.242;20.886;2023-04-06T00:32:30;94.88;;;51.13;;
32523;SDS011;18965;52.242;20.886;2023-04-06T00:34:56;60.58;;;46.90;;
32523;SDS011;18965;52.242;20.886;2023-04-06T00:37:22;77.10;;;50.88;;
32523;SDS011;18965;52.242;20.886;2023-04-06T00:39:48;80.13;;;51.13;;
32523;SDS011;18965;52.242;20.886;2023-04-06T00:42:16;68.82;;;49.33;;
32523;SDS011;18965;52.242;20.886;2023-04-06T00:44:49;66.40;;;46.33;;
32523;SDS011;18965;52.242;20.886;2023-04-06T00:47:16;82.35;;;51.22;;
32523;SDS011;18965;52.242;20.886;2023-04-06T00:49:42;94.97;;;53.60;;
32523;SDS011;18965;52.242;20.886;2023-04-06T00:52:08;117.35;;;57.50;;
32523;SDS011;18965;52.242;20.886;2023-04-06T00:54:34;86.95;;;51.65;;
32523;SDS011;18965;52.242;20.886;2023-04-06T00:56:59;67.22;;;46.88;;
32523;SDS011;18965;52.242;20.886;2023-04-06T00:59:26;75.90;;;48.30;;
32523;SDS011;18965;52.242;20.886;2023-04-06T01:01:52;86.68;;;49.42;;
32523;SDS011;18965;52.242;20.886;2023-04-06T01:04:18;63.00;;;45.35;;
32523;SDS011;18965;52.242;20.886;2023-04-06T01:06:44;69.75;;;47.85;;
32523;SDS011;18965;52.242;20.886;2023-04-06T01:09:10;82.00;;;51.05;;
32523;SDS011;18965;52.242;20.886;2023-04-06T01:11:36;86.82;;;52.83;;
32523;SDS011;18965;52.242;20.886;2023-04-06T01:14:02;89.28;;;51.20;;
32523;SDS011;18965;52.242;20.886;2023-04-06T01:16:28;68.10;;;46.22;;
32523;SDS011;18965;52.242;20.886;2023-04-06T01:18:54;57.92;;;42.25;;
32523;SDS011;18965;52.242;20.886;2023-04-06T01:21:20;52.42;;;42.65;;
32523;SDS011;18965;52.242;20.886;2023-04-06T01:23:46;56.08;;;41.78;;
32523;SDS011;18965;52.242;20.886;2023-04-06T01:26:12;64.13;;;44.60;;
32523;SDS011;18965;52.242;20.886;2023-04-06T01:28:38;65.15;;;44.67;;
32523;SDS011;18965;52.242;20.886;2023-04-06T01:31:05;68.10;;;46.60;;
32523;SDS011;18965;52.242;20.886;2023-04-06T01:33:34;63.22;;;44.88;;
32523;SDS011;18965;52.242;20.886;2023-04-06T01:36:00;94.30;;;53.95;;
32523;SDS011;18965;52.242;20.886;2023-04-06T01:38:26;91.82;;;53.03;;
32523;SDS011;18965;52.242;20.886;2023-04-06T01:40:52;37.83;;;31.05;;
32523;SDS011;18965;52.242;20.886;2023-04-06T01:43:18;45.83;;;34.92;;
32523;SDS011;18965;52.242;20.886;2023-04-06T01:45:44;49.83;;;32.83;;
32523;SDS011;18965;52.242;20.886;2023-04-06T01:48:10;36.33;;;23.23;;
32523;SDS011;18965;52.242;20.886;2023-04-06T01:50:35;62.30;;;43.65;;
32523;SDS011;18965;52.242;20.886;2023-04-06T01:53:01;22.90;;;15.90;;
32523;SDS011;18965;52.242;20.886;2023-04-06T01:55:27;35.63;;;24.90;;
32523;SDS011;18965;52.242;20.886;2023-04-06T01:57:52;18.70;;;8.60;;
32523;SDS011;18965;52.242;20.886;2023-04-06T02:00:18;22.23;;;9.23;;
32523;SDS011;18965;52.242;20.886;2023-04-06T02:02:44;40.83;;;11.40;;
32523;SDS011;18965;52.242;20.886;2023-04-06T02:05:10;29.27;;;19.77;;
32523;SDS011;18965;52.242;20.886;2023-04-06T02:07:36;56.45;;;43.72;;
32523;SDS011;18965;52.242;20.886;2023-04-06T02:10:02;19.08;;;11.82;;
32523;SDS011;18965;52.242;20.886;2023-04-06T02:12:28;75.68;;;45.38;;
32523;SDS011;18965;52.242;20.886;2023-04-06T02:14:54;52.45;;;32.17;;
32523;SDS011;18965;52.242;20.886;2023-04-06T02:17:20;40.08;;;27.20;;
32523;SDS011;18965;52.242;20.886;2023-04-06T02:19:45;23.35;;;18.25;;
32523;SDS011;18965;52.242;20.886;2023-04-06T02:22:11;20.45;;;12.43;;
32523;SDS011;18965;52.242;20.886;2023-04-06T02:24:37;23.05;;;9.30;;
32523;SDS011;18965;52.242;20.886;2023-04-06T02:27:03;20.98;;;6.93;;
32523;SDS011;18965;52.242;20.886;2023-04-06T02:29:28;20.13;;;9.43;;
32523;SDS011;18965;52.242;20.886;2023-04-06T02:31:54;19.10;;;9.75;;
32523;SDS011;18965;52.242;20.886;2023-04-06T02:34:20;16.65;;;9.93;;
32523;SDS011;18965;52.242;20.886;2023-04-06T02:36:45;46.95;;;15.15;;
32523;SDS011;18965;52.242;20.886;2023-04-06T02:39:12;27.63;;;11.30;;
32523;SDS011;18965;52.242;20.886;2023-04-06T02:41:38;26.98;;;8.27;;
32523;SDS011;18965;52.242;20.886;2023-04-06T02:44:06;15.27;;;6.47;;
32523;SDS011;18965;52.242;20.886;2023-04-06T02:46:33;21.77;;;14.02;;
32523;SDS011;18965;52.242;20.886;2023-04-06T02:48:59;100.65;;;58.30;;
32523;SDS011;18965;52.242;20.886;2023-04-06T02:51:25;91.57;;;55.70;;
32523;SDS011;18965;52.242;20.886;2023-04-06T02:53:52;111.80;;;59.55;;
32523;SDS011;18965;52.242;20.886;2023-04-06T02:56:18;103.05;;;57.63;;
32523;SDS011;18965;52.242;20.886;2023-04-06T02:58:44;51.08;;;32.83;;
32523;SDS011;18965;52.242;20.886;2023-04-06T03:01:09;112.00;;;61.70;;
32523;SDS011;18965;52.242;20.886;2023-04-06T03:03:35;67.43;;;39.67;;
32523;SDS011;18965;52.242;20.886;2023-04-06T03:06:01;72.63;;;48.88;;
32523;SDS011;18965;52.242;20.886;2023-04-06T03:08:28;135.02;;;65.75;;
32523;SDS011;18965;52.242;20.886;2023-04-06T03:10:53;39.13;;;26.38;;
32523;SDS011;18965;52.242;20.886;2023-04-06T03:13:20;95.00;;;53.65;;
32523;SDS011;18965;52.242;20.886;2023-04-06T03:15:46;84.68;;;50.45;;
32523;SDS011;18965;52.242;20.886;2023-04-06T03:18:11;75.75;;;47.53;;
32523;SDS011;18965;52.242;20.886;2023-04-06T03:20:37;111.70;;;57.42;;
32523;SDS011;18965;52.242;20.886;2023-04-06T03:23:03;85.63;;;50.55;;
32523;SDS011;18965;52.242;20.886;2023-04-06T03:25:28;101.05;;;57.25;;
32523;SDS011;18965;52.242;20.886;2023-04-06T03:27:55;113.47;;;55.08;;
32523;SDS011;18965;52.242;20.886;2023-04-06T03:30:21;108.07;;;57.28;;
32523;SDS011;18965;52.242;20.886;2023-04-06T03:32:47;87.50;;;54.05;;
32523;SDS011;18965;52.242;20.886;2023-04-06T03:35:12;87.85;;;53.65;;
32523;SDS011;18965;52.242;20.886;2023-04-06T03:37:38;22.42;;;8.43;;
32523;SDS011;18965;52.242;20.886;2023-04-06T03:40:04;134.85;;;58.78;;
32523;SDS011;18965;52.242;20.886;2023-04-06T03:42:30;99.95;;;55.25;;
32523;SDS011;18965;52.242;20.886;2023-04-06T03:44:57;91.50;;;54.53;;
32523;SDS011;18965;52.242;20.886;2023-04-06T03:47:24;111.97;;;57.65;;
32523;SDS011;18965;52.242;20.886;2023-04-06T03:49:50;108.68;;;59.70;;
32523;SDS011;18965;52.242;20.886;2023-04-06T03:52:16;106.40;;;54.58;;
32523;SDS011;18965;52.242;20.886;2023-04-06T03:54:41;82.68;;;50.63;;
32523;SDS011;18965;52.242;20.886;2023-04-06T03:57:07;91.47;;;61.60;;
32523;SDS011;18965;52.242;20.886;2023-04-06T03:59:33;71.05;;;46.63;;
32523;SDS011;18965;52.242;20.886;2023-04-06T04:01:58;100.15;;;54.17;;
32523;SDS011;18965;52.242;20.886;2023-04-06T04:04:24;101.03;;;54.80;;
32523;SDS011;18965;52.242;20.886;2023-04-06T04:06:50;92.72;;;53.70;;
32523;SDS011;18965;52.242;20.886;2023-04-06T04:09:15;90.57;;;52.85;;
32523;SDS011;18965;52.242;20.886;2023-04-06T04:11:41;87.47;;;52.35;;
32523;SDS011;18965;52.242;20.886;2023-04-06T04:14:07;93.95;;;53.42;;
32523;SDS011;18965;52.242;20.886;2023-04-06T04:16:33;155.65;;;63.25;;
32523;SDS011;18965;52.242;20.886;2023-04-06T04:18:58;87.50;;;51.90;;
32523;SDS011;18965;52.242;20.886;2023-04-06T04:21:24;81.25;;;50.03;;
32523;SDS011;18965;52.242;20.886;2023-04-06T04:23:51;101.32;;;56.28;;
32523;SDS011;18965;52.242;20.886;2023-04-06T04:26:17;101.28;;;57.88;;
32523;SDS011;18965;52.242;20.886;2023-04-06T04:28:43;91.93;;;53.35;;
32523;SDS011;18965;52.242;20.886;2023-04-06T04:31:09;89.60;;;53.45;;
32523;SDS011;18965;52.242;20.886;2023-04-06T04:33:35;75.40;;;49.63;;
32523;SDS011;18965;52.242;20.886;2023-04-06T04:36:00;91.22;;;55.53;;
32523;SDS011;18965;52.242;20.886;2023-04-06T04:38:26;76.40;;;51.63;;
32523;SDS011;18965;52.242;20.886;2023-04-06T04:40:52;118.75;;;58.38;;
32523;SDS011;18965;52.242;20.886;2023-04-06T04:43:18;114.30;;;56.83;;
32523;SDS011;18965;52.242;20.886;2023-04-06T04:45:43;89.07;;;54.30;;
32523;SDS011;18965;52.242;20.886;2023-04-06T04:48:09;123.72;;;60.47;;
32523;SDS011;18965;52.242;20.886;2023-04-06T04:50:35;106.53;;;57.33;;
32523;SDS011;18965;52.242;20.886;2023-04-06T04:53:01;103.18;;;56.55;;
32523;SDS011;18965;52.242;20.886;2023-04-06T04:55:27;129.13;;;59.47;;
32523;SDS011;18965;52.242;20.886;2023-04-06T04:57:54;107.60;;;56.72;;
32523;SDS011;18965;52.242;20.886;2023-04-06T05:00:19;169.23;;;64.45;;
32523;SDS011;18965;52.242;20.886;2023-04-06T05:02:45;120.55;;;58.47;;
32523;SDS011;18965;52.242;20.886;2023-04-06T05:05:11;113.45;;;56.20;;
32523;SDS011;18965;52.242;20.886;2023-04-06T05:07:37;111.57;;;55.45;;
32523;SDS011;18965;52.242;20.886;2023-04-06T05:10:03;98.90;;;51.92;;
32523;SDS011;18965;52.242;20.886;2023-04-06T05:12:29;119.72;;;56.25;;
32523;SDS011;18965;52.242;20.886;2023-04-06T05:14:54;124.75;;;58.70;;
32523;SDS011;18965;52.242;20.886;2023-04-06T05:17:20;119.75;;;60.15;;
32523;SDS011;18965;52.242;20.886;2023-04-06T05:19:46;115.63;;;56.70;;
32523;SDS011;18965;52.242;20.886;2023-04-06T05:22:12;86.57;;;50.78;;
32523;SDS011;18965;52.242;20.886;2023-04-06T05:24:39;85.78;;;52.60;;
32523;SDS011;18965;52.242;20.886;2023-04-06T05:27:05;86.07;;;50.95;;
32523;SDS011;18965;52.242;20.886;2023-04-06T05:29:31;82.53;;;51.70;;
32523;SDS011;18965;52.242;20.886;2023-04-06T05:31:57;110.45;;;59.25;;
32523;SDS011;18965;52.242;20.886;2023-04-06T05:34:22;125.72;;;60.45;;
32523;SDS011;18965;52.242;20.886;2023-04-06T05:36:48;96.90;;;54.45;;
32523;SDS011;18965;52.242;20.886;2023-04-06T05:39:14;135.02;;;57.45;;
32523;SDS011;18965;52.242;20.886;2023-04-06T05:41:40;132.05;;;57.42;;
32523;SDS011;18965;52.242;20.886;2023-04-06T05:44:06;70.75;;;46.75;;
32523;SDS011;18965;52.242;20.886;2023-04-06T05:46:31;74.85;;;43.10;;
32523;SDS011;18965;52.242;20.886;2023-04-06T05:48:57;91.85;;;52.20;;
32523;SDS011;18965;52.242;20.886;2023-04-06T05:51:23;119.47;;;60.30;;
32523;SDS011;18965;52.242;20.886;2023-04-06T05:53:49;91.35;;;54.22;;
32523;SDS011;18965;52.242;20.886;2023-04-06T05:56:15;94.65;;;53.97;;
32523;SDS011;18965;52.242;20.886;2023-04-06T05:58:41;90.47;;;52.13;;
32523;SDS011;18965;52.242;20.886;2023-04-06T06:01:07;101.65;;;49.35;;
32523;SDS011;18965;52.242;20.886;2023-04-06T06:03:34;88.28;;;45.38;;
32523;SDS011;18965;52.242;20.886;2023-04-06T06:06:03;55.55;;;40.60;;
32523;SDS011;18965;52.242;20.886;2023-04-06T06:08:29;87.40;;;52.75;;
32523;SDS011;18965;52.242;20.886;2023-04-06T06:10:55;103.57;;;57.42;;
32523;SDS011;18965;52.242;20.886;2023-04-06T06:13:22;87.43;;;52.58;;
32523;SDS011;18965;52.242;20.886;2023-04-06T06:15:48;73.05;;;46.58;;
32523;SDS011;18965;52.242;20.886;2023-04-06T06:18:14;93.82;;;57.15;;
32523;SDS011;18965;52.242;20.886;2023-04-06T06:20:40;113.47;;;55.10;;
32523;SDS011;18965;52.242;20.886;2023-04-06T06:23:06;76.93;;;51.33;;
32523;SDS011;18965;52.242;20.886;2023-04-06T06:25:31;87.90;;;49.30;;
32523;SDS011;18965;52.242;20.886;2023-04-06T06:27:58;86.20;;;54.50;;
32523;SDS011;18965;52.242;20.886;2023-04-06T06:30:24;76.85;;;41.70;;
32523;SDS011;18965;52.242;20.886;2023-04-06T06:32:51;61.67;;;38.80;;
32523;SDS011;18965;52.242;20.886;2023-04-06T06:35:17;58.75;;;41.22;;
32523;SDS011;18965;52.242;20.886;2023-04-06T06:37:42;66.43;;;48.90;;
32523;SDS011;18965;52.242;20.886;2023-04-06T06:40:12;68.13;;;43.80;;
32523;SDS011;18965;52.242;20.886;2023-04-06T06:42:42;121.20;;;54.83;;
32523;SDS011;18965;52.242;20.886;2023-04-06T06:45:08;87.45;;;50.58;;
32523;SDS011;18965;52.242;20.886;2023-04-06T06:47:34;49.15;;;26.73;;
32523;SDS011;18965;52.242;20.886;2023-04-06T06:50:00;72.55;;;46.58;;
32523;SDS011;18965;52.242;20.886;2023-04-06T06:52:28;73.50;;;46.58;;
32523;SDS011;18965;52.242;20.886;2023-04-06T06:54:54;61.72;;;44.70;;
32523;SDS011;18965;52.242;20.886;2023-04-06T06:57:21;61.95;;;36.30;;
32523;SDS011;18965;52.242;20.886;2023-04-06T06:59:50;74.32;;;50.03;;
32523;SDS011;18965;52.242;20.886;2023-04-06T07:02:16;87.55;;;55.38;;
32523;SDS011;18965;52.242;20.886;2023-04-06T07:04:42;87.13;;;53.95;;
32523;SDS011;18965;52.242;20.886;2023-04-06T07:07:07;15.55;;;8.50;;
32523;SDS011;18965;52.242;20.886;2023-04-06T07:09:36;64.43;;;45.05;;
32523;SDS011;18965;52.242;20.886;2023-04-06T07:12:08;55.65;;;34.88;;
32523;SDS011;18965;52.242;20.886;2023-04-06T07:14:40;74.60;;;49.28;;
32523;SDS011;18965;52.242;20.886;2023-04-06T07:17:12;97.18;;;55.90;;
32523;SDS011;18965;52.242;20.886;2023-04-06T07:19:38;60.00;;;39.92;;
32523;SDS011;18965;52.242;20.886;2023-04-06T07:22:08;82.28;;;50.72;;
32523;SDS011;18965;52.242;20.886;2023-04-06T07:24:35;103.00;;;55.83;;
32523;SDS011;18965;52.242;20.886;2023-04-06T07:27:01;143.15;;;68.22;;
32523;SDS011;18965;52.242;20.886;2023-04-06T07:29:26;112.35;;;62.13;;
32523;SDS011;18965;52.242;20.886;2023-04-06T07:31:53;144.23;;;60.42;;
32523;SDS011;18965;52.242;20.886;2023-04-06T07:34:19;144.50;;;67.60;;
32523;SDS011;18965;52.242;20.886;2023-04-06T07:36:50;143.38;;;65.00;;
32523;SDS011;18965;52.242;20.886;2023-04-06T07:39:18;131.85;;;65.00;;
32523;SDS011;18965;52.242;20.886;2023-04-06T07:41:47;64.30;;;45.90;;
32523;SDS011;18965;52.242;20.886;2023-04-06T07:44:13;54.65;;;45.95;;
32523;SDS011;18965;52.242;20.886;2023-04-06T07:46:39;46.70;;;37.80;;
32523;SDS011;18965;52.242;20.886;2023-04-06T07:49:06;64.20;;;43.83;;
32523;SDS011;18965;52.242;20.886;2023-04-06T07:51:32;75.30;;;44.13;;
32523;SDS011;18965;52.242;20.886;2023-04-06T07:54:04;107.03;;;53.42;;
32523;SDS011;18965;52.242;20.886;2023-04-06T07:56:32;109.00;;;57.22;;
32523;SDS011;18965;52.242;20.886;2023-04-06T07:59:02;77.57;;;42.97;;
32523;SDS011;18965;52.242;20.886;2023-04-06T08:01:28;38.25;;;32.30;;
32523;SDS011;18965;52.242;20.886;2023-04-06T08:03:55;70.75;;;46.72;;
32523;SDS011;18965;52.242;20.886;2023-04-06T08:06:21;67.38;;;42.60;;
32523;SDS011;18965;52.242;20.886;2023-04-06T08:08:49;45.85;;;30.20;;
32523;SDS011;18965;52.242;20.886;2023-04-06T08:11:16;45.92;;;30.00;;
32523;SDS011;18965;52.242;20.886;2023-04-06T08:13:43;37.92;;;14.10;;
32523;SDS011;18965;52.242;20.886;2023-04-06T08:16:10;26.48;;;15.90;;
32523;SDS011;18965;52.242;20.886;2023-04-06T08:18:35;45.90;;;15.27;;
32523;SDS011;18965;52.242;20.886;2023-04-06T08:21:02;56.13;;;22.67;;
32523;SDS011;18965;52.242;20.886;2023-04-06T08:23:28;38.28;;;29.58;;
32523;SDS011;18965;52.242;20.886;2023-04-06T08:25:54;37.88;;;26.23;;
32523;SDS011;18965;52.242;20.886;2023-04-06T08:28:21;46.97;;;35.35;;
32523;SDS011;18965;52.242;20.886;2023-04-06T08:30:47;75.30;;;41.95;;
32523;SDS011;18965;52.242;20.886;2023-04-06T08:33:13;60.88;;;37.50;;
32523;SDS011;18965;52.242;20.886;2023-04-06T08:35:42;21.58;;;15.27;;
32523;SDS011;18965;52.242;20.886;2023-04-06T08:38:07;30.88;;;9.35;;
32523;SDS011;18965;52.242;20.886;2023-04-06T08:40:40;22.67;;;8.48;;
32523;SDS011;18965;52.242;20.886;2023-04-06T08:43:09;32.47;;;10.45;;
32523;SDS011;18965;52.242;20.886;2023-04-06T08:45:42;29.73;;;9.15;;
32523;SDS011;18965;52.242;20.886;2023-04-06T08:48:08;48.30;;;10.10;;
32523;SDS011;18965;52.242;20.886;2023-04-06T08:50:39;23.95;;;6.18;;
32523;SDS011;18965;52.242;20.886;2023-04-06T08:53:05;15.85;;;5.38;;
32523;SDS011;18965;52.242;20.886;2023-04-06T08:55:33;24.48;;;5.95;;
32523;SDS011;18965;52.242;20.886;2023-04-06T08:57:59;24.45;;;6.13;;
32523;SDS011;18965;52.242;20.886;2023-04-06T09:00:30;35.95;;;6.65;;
32523;SDS011;18965;52.242;20.886;2023-04-06T09:03:14;26.08;;;5.78;;
32523;SDS011;18965;52.242;20.886;2023-04-06T09:05:43;13.87;;;4.50;;
32523;SDS011;18965;52.242;20.886;2023-04-06T09:08:12;12.85;;;4.05;;
32523;SDS011;18965;52.242;20.886;2023-04-06T09:10:40;15.93;;;5.05;;
32523;SDS011;18965;52.242;20.886;2023-04-06T09:13:17;27.88;;;5.50;;
32523;SDS011;18965;52.242;20.886;2023-04-06T09:15:44;22.10;;;6.18;;
32523;SDS011;18965;52.242;20.886;2023-04-06T09:18:10;27.95;;;6.47;;
32523;SDS011;18965;52.242;20.886;2023-04-06T09:20:36;19.60;;;5.47;;
32523;SDS011;18965;52.242;20.886;2023-04-06T09:23:02;46.15;;;8.35;;
32523;SDS011;18965;52.242;20.886;2023-04-06T09:25:31;15.60;;;5.35;;
32523;SDS011;18965;52.242;20.886;2023-04-06T09:27:58;24.00;;;5.70;;
32523;SDS011;18965;52.242;20.886;2023-04-06T09:30:28;38.22;;;7.18;;
32523;SDS011;18965;52.242;20.886;2023-04-06T09:32:55;26.88;;;6.82;;
32523;SDS011;18965;52.242;20.886;2023-04-06T09:35:24;57.42;;;9.90;;
32523;SDS011;18965;52.242;20.886;2023-04-06T09:37:58;14.82;;;4.78;;
32523;SDS011;18965;52.242;20.886;2023-04-06T09:40:52;36.78;;;7.45;;
32523;SDS011;18965;52.242;20.886;2023-04-06T09:43:26;31.17;;;7.38;;
32523;SDS011;18965;52.242;20.886;2023-04-06T09:45:52;25.58;;;9.68;;
32523;SDS011;18965;52.242;20.886;2023-04-06T09:48:24;24.00;;;9.65;;
32523;SDS011;18965;52.242;20.886;2023-04-06T09:50:52;21.60;;;9.02;;
32523;SDS011;18965;52.242;20.886;2023-04-06T09:53:34;35.92;;;13.60;;
32523;SDS011;18965;52.242;20.886;2023-04-06T09:56:09;35.90;;;14.82;;
32523;SDS011;18965;52.242;20.886;2023-04-06T09:58:41;34.20;;;14.90;;
32523;SDS011;18965;52.242;20.886;2023-04-06T10:01:12;41.60;;;11.82;;
32523;SDS011;18965;52.242;20.886;2023-04-06T10:06:15;27.67;;;9.23;;
32523;SDS011;18965;52.242;20.886;2023-04-06T10:08:47;21.65;;;8.77;;
32523;SDS011;18965;52.242;20.886;2023-04-06T10:11:16;22.45;;;7.82;;
32523;SDS011;18965;52.242;20.886;2023-04-06T10:13:42;24.65;;;12.82;;
32523;SDS011;18965;52.242;20.886;2023-04-06T10:16:12;13.43;;;7.18;;
32523;SDS011;18965;52.242;20.886;2023-04-06T10:18:39;32.00;;;13.73;;
32523;SDS011;18965;52.242;20.886;2023-04-06T10:21:16;28.17;;;17.23;;
32523;SDS011;18965;52.242;20.886;2023-04-06T10:23:47;31.58;;;16.10;;
32523;SDS011;18965;52.242;20.886;2023-04-06T10:26:16;20.95;;;16.67;;
32523;SDS011;18965;52.242;20.886;2023-04-06T10:28:45;31.17;;;19.35;;
32523;SDS011;18965;52.242;20.886;2023-04-06T10:31:12;40.08;;;15.07;;
32523;SDS011;18965;52.242;20.886;2023-04-06T10:33:38;34.50;;;14.65;;
32523;SDS011;18965;52.242;20.886;2023-04-06T10:36:09;22.90;;;9.75;;
32523;SDS011;18965;52.242;20.886;2023-04-06T10:38:38;31.90;;;10.02;;
32523;SDS011;18965;52.242;20.886;2023-04-06T10:43:35;17.23;;;10.55;;
32523;SDS011;18965;52.242;20.886;2023-04-06T10:46:02;21.38;;;12.63;;
32523;SDS011;18965;52.242;20.886;2023-04-06T10:48:39;22.30;;;8.70;;
32523;SDS011;18965;52.242;20.886;2023-04-06T10:51:14;39.20;;;15.85;;
32523;SDS011;18965;52.242;20.886;2023-04-06T10:53:41;36.90;;;25.58;;
32523;SDS011;18965;52.242;20.886;2023-04-06T10:56:12;36.13;;;17.80;;
32523;SDS011;18965;52.242;20.886;2023-04-06T10:58:49;26.58;;;21.23;;
32523;SDS011;18965;52.242;20.886;2023-04-06T11:01:18;41.53;;;25.20;;
32523;SDS011;18965;52.242;20.886;2023-04-06T11:06:19;22.30;;;15.68;;
32523;SDS011;18965;52.242;20.886;2023-04-06T11:08:50;18.98;;;9.10;;
32523;SDS011;18965;52.242;20.886;2023-04-06T11:11:20;28.13;;;10.63;;
32523;SDS011;18965;52.242;20.886;2023-04-06T11:13:52;27.80;;;8.75;;
32523;SDS011;18965;52.242;20.886;2023-04-06T11:24:24;34.25;;;7.93;;
32523;SDS011;18965;52.242;20.886;2023-04-06T11:30:03;22.33;;;7.05;;
32523;SDS011;18965;52.242;20.886;2023-04-06T11:32:41;33.10;;;8.13;;
32523;SDS011;18965;52.242;20.886;2023-04-06T11:35:19;40.08;;;8.77;;
32523;SDS011;18965;52.242;20.886;2023-04-06T11:37:49;33.17;;;8.75;;
32523;SDS011;18965;52.242;20.886;2023-04-06T11:40:31;22.42;;;6.55;;
32523;SDS011;18965;52.242;20.886;2023-04-06T11:43:03;29.20;;;7.28;;
32523;SDS011;18965;52.242;20.886;2023-04-06T11:45:38;41.50;;;8.35;;
32523;SDS011;18965;52.242;20.886;2023-04-06T11:48:17;24.48;;;7.18;;
32523;SDS011;18965;52.242;20.886;2023-04-06T11:50:45;68.18;;;10.75;;
32523;SDS011;18965;52.242;20.886;2023-04-06T11:53:20;29.02;;;7.00;;
32523;SDS011;18965;52.242;20.886;2023-04-06T11:55:46;40.90;;;8.90;;
32523;SDS011;18965;52.242;20.886;2023-04-06T11:58:12;42.38;;;9.30;;
32523;SDS011;18965;52.242;20.886;2023-04-06T12:00:38;46.17;;;9.05;;
32523;SDS011;18965;52.242;20.886;2023-04-06T12:03:03;46.10;;;8.35;;
32523;SDS011;18965;52.242;20.886;2023-04-06T12:05:29;30.27;;;8.88;;
32523;SDS011;18965;52.242;20.886;2023-04-06T12:07:59;32.63;;;8.27;;
32523;SDS011;18965;52.242;20.886;2023-04-06T12:10:25;26.30;;;8.70;;
32523;SDS011;18965;52.242;20.886;2023-04-06T12:12:51;32.53;;;10.27;;
32523;SDS011;18965;52.242;20.886;2023-04-06T12:15:19;36.13;;;9.00;;
32523;SDS011;18965;52.242;20.886;2023-04-06T12:17:46;30.77;;;9.75;;
32523;SDS011;18965;52.242;20.886;2023-04-06T12:20:12;39.33;;;12.85;;
32523;SDS011;18965;52.242;20.886;2023-04-06T12:22:39;35.22;;;10.13;;
32523;SDS011;18965;52.242;20.886;2023-04-06T12:25:05;29.10;;;10.02;;
32523;SDS011;18965;52.242;20.886;2023-04-06T12:27:34;39.70;;;10.65;;
32523;SDS011;18965;52.242;20.886;2023-04-06T12:30:00;37.13;;;10.65;;
32523;SDS011;18965;52.242;20.886;2023-04-06T12:32:27;21.23;;;8.23;;
32523;SDS011;18965;52.242;20.886;2023-04-06T12:34:52;20.23;;;7.97;;
32523;SDS011;18965;52.242;20.886;2023-04-06T12:40:12;43.65;;;9.88;;
32523;SDS011;18965;52.242;20.886;2023-04-06T12:43:01;25.15;;;8.50;;
32523;SDS011;18965;52.242;20.886;2023-04-06T12:45:27;35.42;;;10.18;;
32523;SDS011;18965;52.242;20.886;2023-04-06T12:47:57;38.53;;;13.75;;
32523;SDS011;18965;52.242;20.886;2023-04-06T12:50:35;130.35;;;20.38;;
32523;SDS011;18965;52.242;20.886;2023-04-06T12:53:01;35.88;;;8.98;;
32523;SDS011;18965;52.242;20.886;2023-04-06T12:55:29;26.35;;;9.05;;
32523;SDS011;18965;52.242;20.886;2023-04-06T12:57:59;26.05;;;12.55;;
32523;SDS011;18965;52.242;20.886;2023-04-06T13:00:25;39.03;;;15.73;;
32523;SDS011;18965;52.242;20.886;2023-04-06T13:02:51;24.98;;;15.05;;
32523;SDS011;18965;52.242;20.886;2023-04-06T13:05:17;31.05;;;24.00;;
32523;SDS011;18965;52.242;20.886;2023-04-06T13:07:43;62.47;;;44.55;;
32523;SDS011;18965;52.242;20.886;2023-04-06T13:10:11;71.93;;;48.28;;
32523;SDS011;18965;52.242;20.886;2023-04-06T13:12:37;66.07;;;43.80;;
32523;SDS011;18965;52.242;20.886;2023-04-06T13:15:03;43.58;;;29.48;;
32523;SDS011;18965;52.242;20.886;2023-04-06T13:17:29;61.97;;;44.15;;
32523;SDS011;18965;52.242;20.886;2023-04-06T13:19:56;58.35;;;42.45;;
32523;SDS011;18965;52.242;20.886;2023-04-06T13:22:22;46.88;;;36.40;;
32523;SDS011;18965;52.242;20.886;2023-04-06T13:24:50;34.08;;;30.30;;
32523;SDS011;18965;52.242;20.886;2023-04-06T13:27:18;22.90;;;19.25;;
32523;SDS011;18965;52.242;20.886;2023-04-06T13:29:44;30.35;;;16.50;;
32523;SDS011;18965;52.242;20.886;2023-04-06T13:32:10;73.30;;;27.08;;
32523;SDS011;18965;52.242;20.886;2023-04-06T13:34:36;32.95;;;16.70;;
32523;SDS011;18965;52.242;20.886;2023-04-06T13:37:02;13.65;;;8.05;;
32523;SDS011;18965;52.242;20.886;2023-04-06T13:39:27;11.40;;;6.82;;
32523;SDS011;18965;52.242;20.886;2023-04-06T13:41:53;46.13;;;11.77;;
32523;SDS011;18965;52.242;20.886;2023-04-06T13:44:21;26.20;;;10.05;;
32523;SDS011;18965;52.242;20.886;2023-04-06T13:46:47;32.75;;;13.55;;
32523;SDS011;18965;52.242;20.886;2023-04-06T13:49:14;20.73;;;11.50;;
32523;SDS011;18965;52.242;20.886;2023-04-06T13:51:40;20.25;;;9.38;;
32523;SDS011;18965;52.242;20.886;2023-04-06T13:54:07;16.13;;;11.55;;
32523;SDS011;18965;52.242;20.886;2023-04-06T13:56:32;48.30;;;16.50;;
32523;SDS011;18965;52.242;20.886;2023-04-06T13:58:58;27.92;;;14.35;;
32523;SDS011;18965;52.242;20.886;2023-04-06T14:01:24;20.35;;;10.40;;
32523;SDS011;18965;52.242;20.886;2023-04-06T14:03:51;18.00;;;8.60;;
32523;SDS011;18965;52.242;20.886;2023-04-06T14:06:17;81.25;;;15.27;;
32523;SDS011;18965;52.242;20.886;2023-04-06T14:08:43;24.92;;;13.20;;
32523;SDS011;18965;52.242;20.886;2023-04-06T14:11:12;52.60;;;26.38;;
32523;SDS011;18965;52.242;20.886;2023-04-06T14:13:39;35.65;;;28.02;;
32523;SDS011;18965;52.242;20.886;2023-04-06T14:16:08;52.70;;;12.68;;
32523;SDS011;18965;52.242;20.886;2023-04-06T14:18:36;22.40;;;12.90;;
32523;SDS011;18965;52.242;20.886;2023-04-06T14:21:02;49.30;;;12.88;;
32523;SDS011;18965;52.242;20.886;2023-04-06T14:23:28;33.63;;;10.32;;
32523;SDS011;18965;52.242;20.886;2023-04-06T14:26:00;19.25;;;9.20;;
32523;SDS011;18965;52.242;20.886;2023-04-06T14:28:30;18.60;;;7.78;;
32523;SDS011;18965;52.242;20.886;2023-04-06T14:31:00;28.13;;;10.10;;